Chulitna, Alaska
Current Conditions -  °F | °C
As of 12:53 PM on Monday 26 Jan 2015 (Local Time) from PATK Reporting Station
Clear Clear  
Wind Chill: -12°   Ceiling: Unl
Heat Index:   Visibility: 10mi
Dew Point: -12°   Wind: 6mph
Humidity: 57%   Direction: 350°N
Pressure: 30.04"   Gusts: NA
Location:  62.88°N, 149.83°W
Report Text: PATK 262153Z 35005KT 10SM CLR M18/M24 A3004 RMK AO2 SLP186 T11781244
Loading
Personal Weather Stations






























Interactive Weather Map New forecast layout! Learn more

10-Day Weather Forecast

Advertisements
Track Severe Weather on mobile